sensor_id;sensor_type;location;lat;lon;timestamp;P1;durP1;ratioP1;P2;durP2;ratioP2
65533;SDS011;53640;55.838;37.184;2023-07-08T00:01:14;8.73;;;6.30;;
65533;SDS011;53640;55.838;37.184;2023-07-08T00:03:42;9.23;;;6.80;;
65533;SDS011;53640;55.838;37.184;2023-07-08T00:06:11;8.93;;;7.10;;
65533;SDS011;53640;55.838;37.184;2023-07-08T00:08:43;12.10;;;7.70;;
65533;SDS011;53640;55.838;37.184;2023-07-08T00:11:11;8.80;;;7.00;;
65533;SDS011;53640;55.838;37.184;2023-07-08T00:13:39;7.43;;;6.60;;
65533;SDS011;53640;55.838;37.184;2023-07-08T00:16:13;8.73;;;7.45;;
65533;SDS011;53640;55.838;37.184;2023-07-08T00:18:43;8.32;;;6.90;;
65533;SDS011;53640;55.838;37.184;2023-07-08T00:21:11;11.80;;;7.43;;
65533;SDS011;53640;55.838;37.184;2023-07-08T00:23:48;6.87;;;6.03;;
65533;SDS011;53640;55.838;37.184;2023-07-08T00:29:09;10.63;;;8.50;;
65533;SDS011;53640;55.838;37.184;2023-07-08T00:31:39;9.73;;;7.70;;
65533;SDS011;53640;55.838;37.184;2023-07-08T00:34:07;9.07;;;7.20;;
65533;SDS011;53640;55.838;37.184;2023-07-08T00:36:34;12.35;;;8.32;;
65533;SDS011;53640;55.838;37.184;2023-07-08T00:39:01;10.32;;;8.05;;
65533;SDS011;53640;55.838;37.184;2023-07-08T00:41:32;11.02;;;8.65;;
65533;SDS011;53640;55.838;37.184;2023-07-08T00:44:12;9.57;;;7.97;;
65533;SDS011;53640;55.838;37.184;2023-07-08T00:46:52;10.88;;;9.10;;
65533;SDS011;53640;55.838;37.184;2023-07-08T00:54:54;9.27;;;8.30;;
65533;SDS011;53640;55.838;37.184;2023-07-08T00:57:24;11.73;;;8.18;;
65533;SDS011;53640;55.838;37.184;2023-07-08T01:00:00;10.52;;;7.97;;
65533;SDS011;53640;55.838;37.184;2023-07-08T01:02:35;9.85;;;8.18;;
65533;SDS011;53640;55.838;37.184;2023-07-08T01:05:09;9.27;;;8.02;;
65533;SDS011;53640;55.838;37.184;2023-07-08T01:07:39;12.45;;;9.07;;
65533;SDS011;53640;55.838;37.184;2023-07-08T01:12:45;11.13;;;8.43;;
65533;SDS011;53640;55.838;37.184;2023-07-08T01:15:15;9.88;;;8.18;;
65533;SDS011;53640;55.838;37.184;2023-07-08T01:17:44;11.25;;;8.15;;
65533;SDS011;53640;55.838;37.184;2023-07-08T01:20:11;12.27;;;8.15;;
65533;SDS011;53640;55.838;37.184;2023-07-08T01:22:41;11.27;;;8.30;;
65533;SDS011;53640;55.838;37.184;2023-07-08T01:25:08;9.27;;;7.35;;
65533;SDS011;53640;55.838;37.184;2023-07-08T01:27:39;10.57;;;8.15;;
65533;SDS011;53640;55.838;37.184;2023-07-08T01:30:09;9.33;;;8.17;;
65533;SDS011;53640;55.838;37.184;2023-07-08T01:32:39;9.95;;;8.35;;
65533;SDS011;53640;55.838;37.184;2023-07-08T01:35:12;12.32;;;9.30;;
65533;SDS011;53640;55.838;37.184;2023-07-08T01:37:43;9.52;;;7.90;;
65533;SDS011;53640;55.838;37.184;2023-07-08T01:40:23;12.68;;;8.23;;
65533;SDS011;53640;55.838;37.184;2023-07-08T01:42:52;9.10;;;7.80;;
65533;SDS011;53640;55.838;37.184;2023-07-08T01:45:20;11.35;;;8.05;;
65533;SDS011;53640;55.838;37.184;2023-07-08T01:47:51;15.43;;;8.68;;
65533;SDS011;53640;55.838;37.184;2023-07-08T01:50:23;9.48;;;8.48;;
65533;SDS011;53640;55.838;37.184;2023-07-08T01:52:52;10.05;;;8.38;;
65533;SDS011;53640;55.838;37.184;2023-07-08T01:55:23;12.48;;;9.05;;
65533;SDS011;53640;55.838;37.184;2023-07-08T01:57:52;10.65;;;8.38;;
65533;SDS011;53640;55.838;37.184;2023-07-08T02:00:19;10.85;;;7.93;;
65533;SDS011;53640;55.838;37.184;2023-07-08T02:02:47;13.38;;;8.50;;
65533;SDS011;53640;55.838;37.184;2023-07-08T02:05:14;8.05;;;7.25;;
65533;SDS011;53640;55.838;37.184;2023-07-08T02:07:41;8.35;;;7.40;;
65533;SDS011;53640;55.838;37.184;2023-07-08T02:10:08;10.27;;;8.05;;
65533;SDS011;53640;55.838;37.184;2023-07-08T02:12:35;7.43;;;6.70;;
65533;SDS011;53640;55.838;37.184;2023-07-08T02:15:03;8.95;;;7.68;;
65533;SDS011;53640;55.838;37.184;2023-07-08T02:17:33;10.50;;;7.18;;
65533;SDS011;53640;55.838;37.184;2023-07-08T02:20:20;8.43;;;7.32;;
65533;SDS011;53640;55.838;37.184;2023-07-08T02:22:46;11.07;;;7.85;;
65533;SDS011;53640;55.838;37.184;2023-07-08T02:25:13;9.73;;;8.13;;
65533;SDS011;53640;55.838;37.184;2023-07-08T02:27:39;11.55;;;7.93;;
65533;SDS011;53640;55.838;37.184;2023-07-08T02:30:06;8.85;;;7.78;;
65533;SDS011;53640;55.838;37.184;2023-07-08T02:32:34;9.68;;;7.50;;
65533;SDS011;53640;55.838;37.184;2023-07-08T02:35:08;9.95;;;8.32;;
65533;SDS011;53640;55.838;37.184;2023-07-08T02:37:35;10.35;;;8.10;;
65533;SDS011;53640;55.838;37.184;2023-07-08T02:40:02;11.07;;;7.70;;
65533;SDS011;53640;55.838;37.184;2023-07-08T02:42:31;9.00;;;8.10;;
65533;SDS011;53640;55.838;37.184;2023-07-08T02:44:58;9.95;;;7.82;;
65533;SDS011;53640;55.838;37.184;2023-07-08T02:47:25;10.30;;;8.35;;
65533;SDS011;53640;55.838;37.184;2023-07-08T02:49:51;10.35;;;9.20;;
65533;SDS011;53640;55.838;37.184;2023-07-08T02:52:19;10.88;;;9.23;;
65533;SDS011;53640;55.838;37.184;2023-07-08T02:54:45;10.93;;;8.43;;
65533;SDS011;53640;55.838;37.184;2023-07-08T02:57:11;17.08;;;9.02;;
65533;SDS011;53640;55.838;37.184;2023-07-08T02:59:37;10.57;;;8.02;;
65533;SDS011;53640;55.838;37.184;2023-07-08T03:02:06;11.73;;;9.23;;
65533;SDS011;53640;55.838;37.184;2023-07-08T03:04:34;10.10;;;9.02;;
65533;SDS011;53640;55.838;37.184;2023-07-08T03:07:07;11.40;;;8.95;;
65533;SDS011;53640;55.838;37.184;2023-07-08T03:09:38;9.02;;;7.63;;
65533;SDS011;53640;55.838;37.184;2023-07-08T03:12:06;10.30;;;7.95;;
65533;SDS011;53640;55.838;37.184;2023-07-08T03:14:34;10.70;;;9.13;;
65533;SDS011;53640;55.838;37.184;2023-07-08T03:17:03;9.88;;;8.60;;
65533;SDS011;53640;55.838;37.184;2023-07-08T03:19:30;11.02;;;9.00;;
65533;SDS011;53640;55.838;37.184;2023-07-08T03:21:56;11.88;;;9.13;;
65533;SDS011;53640;55.838;37.184;2023-07-08T03:24:23;8.32;;;7.53;;
65533;SDS011;53640;55.838;37.184;2023-07-08T03:26:50;13.40;;;9.18;;
65533;SDS011;53640;55.838;37.184;2023-07-08T03:29:21;10.15;;;8.25;;
65533;SDS011;53640;55.838;37.184;2023-07-08T03:31:48;10.35;;;8.20;;
65533;SDS011;53640;55.838;37.184;2023-07-08T03:34:16;8.95;;;8.05;;
65533;SDS011;53640;55.838;37.184;2023-07-08T03:36:45;9.35;;;7.93;;
65533;SDS011;53640;55.838;37.184;2023-07-08T03:39:19;9.05;;;8.15;;
65533;SDS011;53640;55.838;37.184;2023-07-08T03:41:51;9.07;;;8.18;;
65533;SDS011;53640;55.838;37.184;2023-07-08T03:44:19;12.73;;;8.10;;
65533;SDS011;53640;55.838;37.184;2023-07-08T03:46:47;9.85;;;8.55;;
65533;SDS011;53640;55.838;37.184;2023-07-08T03:49:18;9.65;;;8.45;;
65533;SDS011;53640;55.838;37.184;2023-07-08T03:51:49;8.65;;;7.15;;
65533;SDS011;53640;55.838;37.184;2023-07-08T03:54:21;9.27;;;7.43;;
65533;SDS011;53640;55.838;37.184;2023-07-08T03:56:51;11.10;;;7.90;;
65533;SDS011;53640;55.838;37.184;2023-07-08T03:59:21;9.23;;;6.95;;
65533;SDS011;53640;55.838;37.184;2023-07-08T04:01:48;7.80;;;6.85;;
65533;SDS011;53640;55.838;37.184;2023-07-08T04:04:16;9.18;;;7.63;;
65533;SDS011;53640;55.838;37.184;2023-07-08T04:06:47;8.20;;;6.72;;
65533;SDS011;53640;55.838;37.184;2023-07-08T04:09:14;7.20;;;6.25;;
65533;SDS011;53640;55.838;37.184;2023-07-08T04:11:42;9.90;;;7.22;;
65533;SDS011;53640;55.838;37.184;2023-07-08T04:14:09;9.05;;;5.95;;
65533;SDS011;53640;55.838;37.184;2023-07-08T04:19:26;10.50;;;6.90;;
65533;SDS011;53640;55.838;37.184;2023-07-08T04:21:53;7.93;;;6.40;;
65533;SDS011;53640;55.838;37.184;2023-07-08T04:24:21;8.00;;;6.05;;
65533;SDS011;53640;55.838;37.184;2023-07-08T04:26:47;11.05;;;7.22;;
65533;SDS011;53640;55.838;37.184;2023-07-08T04:29:16;6.93;;;5.85;;
65533;SDS011;53640;55.838;37.184;2023-07-08T04:31:44;10.70;;;7.53;;
65533;SDS011;53640;55.838;37.184;2023-07-08T04:34:10;7.90;;;7.07;;
65533;SDS011;53640;55.838;37.184;2023-07-08T04:36:37;6.30;;;5.70;;
65533;SDS011;53640;55.838;37.184;2023-07-08T04:39:04;8.48;;;6.85;;
65533;SDS011;53640;55.838;37.184;2023-07-08T04:41:32;10.25;;;7.13;;
65533;SDS011;53640;55.838;37.184;2023-07-08T04:43:58;8.70;;;6.40;;
65533;SDS011;53640;55.838;37.184;2023-07-08T04:46:45;6.95;;;5.60;;
65533;SDS011;53640;55.838;37.184;2023-07-08T04:49:14;7.25;;;5.95;;
65533;SDS011;53640;55.838;37.184;2023-07-08T04:51:41;7.72;;;6.05;;
65533;SDS011;53640;55.838;37.184;2023-07-08T04:54:09;9.18;;;6.75;;
65533;SDS011;53640;55.838;37.184;2023-07-08T04:59:10;9.57;;;6.03;;
65533;SDS011;53640;55.838;37.184;2023-07-08T05:01:39;6.95;;;5.80;;
65533;SDS011;53640;55.838;37.184;2023-07-08T05:04:07;6.82;;;5.95;;
65533;SDS011;53640;55.838;37.184;2023-07-08T05:06:37;6.28;;;5.68;;
65533;SDS011;53640;55.838;37.184;2023-07-08T05:09:03;7.10;;;5.20;;
65533;SDS011;53640;55.838;37.184;2023-07-08T05:11:31;6.93;;;5.95;;
65533;SDS011;53640;55.838;37.184;2023-07-08T05:14:00;7.43;;;5.50;;
65533;SDS011;53640;55.838;37.184;2023-07-08T05:16:27;6.80;;;5.75;;
65533;SDS011;53640;55.838;37.184;2023-07-08T05:18:53;5.97;;;5.38;;
65533;SDS011;53640;55.838;37.184;2023-07-08T05:21:21;5.40;;;4.90;;
65533;SDS011;53640;55.838;37.184;2023-07-08T05:23:48;7.25;;;6.15;;
65533;SDS011;53640;55.838;37.184;2023-07-08T05:26:17;6.50;;;5.75;;
65533;SDS011;53640;55.838;37.184;2023-07-08T05:28:44;7.15;;;5.85;;
65533;SDS011;53640;55.838;37.184;2023-07-08T05:31:11;7.65;;;6.55;;
65533;SDS011;53640;55.838;37.184;2023-07-08T05:33:37;7.97;;;6.03;;
65533;SDS011;53640;55.838;37.184;2023-07-08T05:36:04;15.63;;;6.40;;
65533;SDS011;53640;55.838;37.184;2023-07-08T05:38:30;6.93;;;5.90;;
65533;SDS011;53640;55.838;37.184;2023-07-08T05:40:57;8.82;;;5.95;;
65533;SDS011;53640;55.838;37.184;2023-07-08T05:43:25;7.65;;;6.53;;
65533;SDS011;53640;55.838;37.184;2023-07-08T05:45:56;7.53;;;6.35;;
65533;SDS011;53640;55.838;37.184;2023-07-08T05:48:26;6.53;;;5.80;;
65533;SDS011;53640;55.838;37.184;2023-07-08T05:50:54;8.05;;;5.95;;
65533;SDS011;53640;55.838;37.184;2023-07-08T05:53:20;9.38;;;6.07;;
65533;SDS011;53640;55.838;37.184;2023-07-08T05:55:48;7.00;;;6.00;;
65533;SDS011;53640;55.838;37.184;2023-07-08T05:58:17;7.13;;;6.00;;
65533;SDS011;53640;55.838;37.184;2023-07-08T06:00:43;7.07;;;6.20;;
65533;SDS011;53640;55.838;37.184;2023-07-08T06:03:10;6.57;;;5.78;;
65533;SDS011;53640;55.838;37.184;2023-07-08T06:05:39;6.13;;;4.90;;
65533;SDS011;53640;55.838;37.184;2023-07-08T06:08:12;6.65;;;5.90;;
65533;SDS011;53640;55.838;37.184;2023-07-08T06:10:41;5.88;;;5.00;;
65533;SDS011;53640;55.838;37.184;2023-07-08T06:13:10;5.55;;;5.05;;
65533;SDS011;53640;55.838;37.184;2023-07-08T06:15:39;5.90;;;5.00;;
65533;SDS011;53640;55.838;37.184;2023-07-08T06:18:06;8.60;;;5.80;;
65533;SDS011;53640;55.838;37.184;2023-07-08T06:20:33;5.68;;;5.13;;
65533;SDS011;53640;55.838;37.184;2023-07-08T06:23:00;5.22;;;4.70;;
65533;SDS011;53640;55.838;37.184;2023-07-08T06:25:26;5.72;;;5.13;;
65533;SDS011;53640;55.838;37.184;2023-07-08T06:27:53;5.40;;;4.90;;
65533;SDS011;53640;55.838;37.184;2023-07-08T06:30:19;5.05;;;4.60;;
65533;SDS011;53640;55.838;37.184;2023-07-08T06:32:46;5.70;;;4.90;;
65533;SDS011;53640;55.838;37.184;2023-07-08T06:35:12;7.88;;;5.40;;
65533;SDS011;53640;55.838;37.184;2023-07-08T06:37:39;5.47;;;4.97;;
65533;SDS011;53640;55.838;37.184;2023-07-08T06:40:07;5.95;;;5.00;;
65533;SDS011;53640;55.838;37.184;2023-07-08T06:42:34;5.90;;;5.30;;
65533;SDS011;53640;55.838;37.184;2023-07-08T06:45:21;13.18;;;6.18;;
65533;SDS011;53640;55.838;37.184;2023-07-08T06:47:48;6.30;;;5.03;;
65533;SDS011;53640;55.838;37.184;2023-07-08T06:50:16;7.82;;;5.55;;
65533;SDS011;53640;55.838;37.184;2023-07-08T06:52:42;5.25;;;4.72;;
65533;SDS011;53640;55.838;37.184;2023-07-08T06:55:09;6.22;;;5.07;;
65533;SDS011;53640;55.838;37.184;2023-07-08T06:57:36;9.35;;;5.60;;
65533;SDS011;53640;55.838;37.184;2023-07-08T07:00:07;7.25;;;6.00;;
65533;SDS011;53640;55.838;37.184;2023-07-08T07:02:35;7.63;;;5.13;;
65533;SDS011;53640;55.838;37.184;2023-07-08T07:05:02;6.70;;;5.20;;
65533;SDS011;53640;55.838;37.184;2023-07-08T07:07:30;6.75;;;5.50;;
65533;SDS011;53640;55.838;37.184;2023-07-08T07:09:57;6.63;;;4.82;;
65533;SDS011;53640;55.838;37.184;2023-07-08T07:12:25;5.50;;;4.95;;
65533;SDS011;53640;55.838;37.184;2023-07-08T07:14:53;8.13;;;5.40;;
65533;SDS011;53640;55.838;37.184;2023-07-08T07:17:21;9.45;;;5.50;;
65533;SDS011;53640;55.838;37.184;2023-07-08T07:19:49;6.05;;;4.88;;
65533;SDS011;53640;55.838;37.184;2023-07-08T07:22:15;5.47;;;4.40;;
65533;SDS011;53640;55.838;37.184;2023-07-08T07:24:42;4.50;;;4.10;;
65533;SDS011;53640;55.838;37.184;2023-07-08T07:27:08;5.20;;;4.10;;
65533;SDS011;53640;55.838;37.184;2023-07-08T07:29:40;5.00;;;3.97;;
65533;SDS011;53640;55.838;37.184;2023-07-08T07:32:11;4.55;;;4.10;;
65533;SDS011;53640;55.838;37.184;2023-07-08T07:34:38;7.05;;;5.03;;
65533;SDS011;53640;55.838;37.184;2023-07-08T07:37:05;8.15;;;5.20;;
65533;SDS011;53640;55.838;37.184;2023-07-08T07:39:36;5.13;;;4.17;;
65533;SDS011;53640;55.838;37.184;2023-07-08T07:42:02;5.50;;;4.47;;
65533;SDS011;53640;55.838;37.184;2023-07-08T07:44:29;8.25;;;4.50;;
65533;SDS011;53640;55.838;37.184;2023-07-08T07:46:55;6.57;;;4.60;;
65533;SDS011;53640;55.838;37.184;2023-07-08T07:49:22;6.55;;;3.95;;
65533;SDS011;53640;55.838;37.184;2023-07-08T07:51:48;4.78;;;3.83;;
65533;SDS011;53640;55.838;37.184;2023-07-08T07:54:15;5.47;;;4.22;;
65533;SDS011;53640;55.838;37.184;2023-07-08T07:56:42;4.97;;;4.45;;
65533;SDS011;53640;55.838;37.184;2023-07-08T07:59:09;5.18;;;4.15;;
65533;SDS011;53640;55.838;37.184;2023-07-08T08:01:37;5.35;;;4.13;;
65533;SDS011;53640;55.838;37.184;2023-07-08T08:04:04;5.35;;;4.25;;
65533;SDS011;53640;55.838;37.184;2023-07-08T08:06:31;4.35;;;3.80;;
65533;SDS011;53640;55.838;37.184;2023-07-08T08:08:57;5.68;;;4.20;;
65533;SDS011;53640;55.838;37.184;2023-07-08T08:11:23;4.97;;;4.45;;
65533;SDS011;53640;55.838;37.184;2023-07-08T08:13:52;5.05;;;4.35;;
65533;SDS011;53640;55.838;37.184;2023-07-08T08:16:19;7.00;;;4.43;;
65533;SDS011;53640;55.838;37.184;2023-07-08T08:18:47;6.40;;;4.25;;
65533;SDS011;53640;55.838;37.184;2023-07-08T08:21:15;3.50;;;3.20;;
65533;SDS011;53640;55.838;37.184;2023-07-08T08:23:42;5.65;;;4.97;;
65533;SDS011;53640;55.838;37.184;2023-07-08T08:26:09;6.53;;;5.18;;
65533;SDS011;53640;55.838;37.184;2023-07-08T08:28:38;4.10;;;3.80;;
65533;SDS011;53640;55.838;37.184;2023-07-08T08:31:04;3.00;;;2.78;;
65533;SDS011;53640;55.838;37.184;2023-07-08T08:33:31;4.60;;;3.25;;
65533;SDS011;53640;55.838;37.184;2023-07-08T08:35:57;6.07;;;3.22;;
65533;SDS011;53640;55.838;37.184;2023-07-08T08:38:27;3.33;;;2.97;;
65533;SDS011;53640;55.838;37.184;2023-07-08T08:40:53;3.15;;;2.85;;
65533;SDS011;53640;55.838;37.184;2023-07-08T08:43:20;3.38;;;2.75;;
65533;SDS011;53640;55.838;37.184;2023-07-08T08:46:36;3.00;;;2.80;;
65533;SDS011;53640;55.838;37.184;2023-07-08T08:54:18;3.80;;;3.00;;
65533;SDS011;53640;55.838;37.184;2023-07-08T09:01:54;3.17;;;2.88;;
65533;SDS011;53640;55.838;37.184;2023-07-08T09:04:26;4.80;;;3.00;;
65533;SDS011;53640;55.838;37.184;2023-07-08T09:07:06;4.88;;;2.85;;
65533;SDS011;53640;55.838;37.184;2023-07-08T09:12:41;3.03;;;2.72;;
65533;SDS011;53640;55.838;37.184;2023-07-08T09:15:11;3.08;;;2.88;;
65533;SDS011;53640;55.838;37.184;2023-07-08T09:17:41;3.42;;;2.88;;
65533;SDS011;53640;55.838;37.184;2023-07-08T09:25:42;5.03;;;3.10;;
65533;SDS011;53640;55.838;37.184;2023-07-08T09:28:15;3.05;;;2.50;;
65533;SDS011;53640;55.838;37.184;2023-07-08T09:30:42;3.30;;;3.00;;
65533;SDS011;53640;55.838;37.184;2023-07-08T09:33:14;3.30;;;2.97;;
65533;SDS011;53640;55.838;37.184;2023-07-08T09:35:42;3.50;;;2.75;;
65533;SDS011;53640;55.838;37.184;2023-07-08T09:38:17;2.85;;;2.55;;
65533;SDS011;53640;55.838;37.184;2023-07-08T09:40:49;3.58;;;2.47;;
65533;SDS011;53640;55.838;37.184;2023-07-08T09:43:26;3.35;;;2.50;;
65533;SDS011;53640;55.838;37.184;2023-07-08T09:45:57;4.28;;;3.08;;
65533;SDS011;53640;55.838;37.184;2023-07-08T09:48:29;4.88;;;3.20;;
65533;SDS011;53640;55.838;37.184;2023-07-08T09:51:00;3.67;;;2.58;;
65533;SDS011;53640;55.838;37.184;2023-07-08T09:53:32;5.50;;;2.70;;
65533;SDS011;53640;55.838;37.184;2023-07-08T09:56:08;3.80;;;2.88;;
65533;SDS011;53640;55.838;37.184;2023-07-08T09:58:40;3.20;;;2.55;;
65533;SDS011;53640;55.838;37.184;2023-07-08T10:01:31;7.78;;;2.67;;
65533;SDS011;53640;55.838;37.184;2023-07-08T10:03:59;3.80;;;2.95;;
65533;SDS011;53640;55.838;37.184;2023-07-08T10:06:31;5.18;;;3.10;;
65533;SDS011;53640;55.838;37.184;2023-07-08T10:09:08;9.13;;;2.60;;
65533;SDS011;53640;55.838;37.184;2023-07-08T10:11:41;4.63;;;2.55;;
65533;SDS011;53640;55.838;37.184;2023-07-08T10:14:33;4.85;;;2.90;;
65533;SDS011;53640;55.838;37.184;2023-07-08T10:17:03;5.28;;;2.70;;
65533;SDS011;53640;55.838;37.184;2023-07-08T10:19:30;3.00;;;2.58;;
65533;SDS011;53640;55.838;37.184;2023-07-08T10:22:01;4.43;;;2.58;;
65533;SDS011;53640;55.838;37.184;2023-07-08T10:24:57;4.47;;;2.80;;
65533;SDS011;53640;55.838;37.184;2023-07-08T10:38:54;4.13;;;3.58;;
65533;SDS011;53640;55.838;37.184;2023-07-08T10:42:00;3.40;;;2.33;;
65533;SDS011;53640;55.838;37.184;2023-07-08T10:44:43;3.13;;;2.55;;
65533;SDS011;53640;55.838;37.184;2023-07-08T10:58:36;4.72;;;2.65;;
65533;SDS011;53640;55.838;37.184;2023-07-08T11:09:56;10.90;;;3.10;;
65533;SDS011;53640;55.838;37.184;2023-07-08T11:12:28;4.68;;;2.65;;
65533;SDS011;53640;55.838;37.184;2023-07-08T11:15:23;6.30;;;2.53;;
65533;SDS011;53640;55.838;37.184;2023-07-08T11:18:13;2.40;;;2.20;;
65533;SDS011;53640;55.838;37.184;2023-07-08T11:26:32;3.50;;;2.80;;
65533;SDS011;53640;55.838;37.184;2023-07-08T11:29:09;5.68;;;2.65;;
65533;SDS011;53640;55.838;37.184;2023-07-08T11:31:48;2.47;;;2.28;;
65533;SDS011;53640;55.838;37.184;2023-07-08T11:34:16;3.63;;;2.92;;
65533;SDS011;53640;55.838;37.184;2023-07-08T11:36:44;4.10;;;3.17;;
65533;SDS011;53640;55.838;37.184;2023-07-08T11:44:48;3.85;;;2.63;;
65533;SDS011;53640;55.838;37.184;2023-07-08T11:47:34;4.95;;;3.10;;
65533;SDS011;53640;55.838;37.184;2023-07-08T11:50:51;3.92;;;2.58;;
65533;SDS011;53640;55.838;37.184;2023-07-08T11:53:01;2.63;;;2.43;;
65533;SDS011;53640;55.838;37.184;2023-07-08T11:55:42;2.72;;;2.50;;
65533;SDS011;53640;55.838;37.184;2023-07-08T11:58:20;3.90;;;2.63;;
65533;SDS011;53640;55.838;37.184;2023-07-08T12:03:50;4.07;;;2.58;;
65533;SDS011;53640;55.838;37.184;2023-07-08T12:09:26;2.40;;;2.20;;
65533;SDS011;53640;55.838;37.184;2023-07-08T12:12:00;4.53;;;2.15;;
65533;SDS011;53640;55.838;37.184;2023-07-08T12:14:28;2.20;;;1.92;;
65533;SDS011;53640;55.838;37.184;2023-07-08T12:17:01;4.00;;;2.50;;
65533;SDS011;53640;55.838;37.184;2023-07-08T12:19:29;4.38;;;2.30;;
65533;SDS011;53640;55.838;37.184;2023-07-08T12:21:58;2.25;;;1.95;;
65533;SDS011;53640;55.838;37.184;2023-07-08T12:24:24;2.20;;;2.00;;
65533;SDS011;53640;55.838;37.184;2023-07-08T12:26:54;3.97;;;1.98;;
65533;SDS011;53640;55.838;37.184;2023-07-08T12:29:21;4.28;;;2.00;;
65533;SDS011;53640;55.838;37.184;2023-07-08T12:31:51;2.47;;;1.88;;
65533;SDS011;53640;55.838;37.184;2023-07-08T12:34:18;2.05;;;1.80;;
65533;SDS011;53640;55.838;37.184;2023-07-08T12:36:45;1.80;;;1.70;;
65533;SDS011;53640;55.838;37.184;2023-07-08T12:39:13;1.70;;;1.60;;
65533;SDS011;53640;55.838;37.184;2023-07-08T12:41:43;5.03;;;1.90;;
65533;SDS011;53640;55.838;37.184;2023-07-08T12:44:16;4.57;;;1.63;;
65533;SDS011;53640;55.838;37.184;2023-07-08T12:46:52;1.90;;;1.65;;
65533;SDS011;53640;55.838;37.184;2023-07-08T12:49:21;2.58;;;1.60;;
65533;SDS011;53640;55.838;37.184;2023-07-08T12:51:58;1.77;;;1.67;;
65533;SDS011;53640;55.838;37.184;2023-07-08T12:54:24;3.20;;;2.35;;
65533;SDS011;53640;55.838;37.184;2023-07-08T12:56:56;2.20;;;1.52;;
65533;SDS011;53640;55.838;37.184;2023-07-08T12:59:24;2.15;;;1.63;;
65533;SDS011;53640;55.838;37.184;2023-07-08T13:01:51;9.48;;;2.10;;
65533;SDS011;53640;55.838;37.184;2023-07-08T13:04:18;1.67;;;1.58;;
65533;SDS011;53640;55.838;37.184;2023-07-08T13:06:46;3.30;;;1.90;;
65533;SDS011;53640;55.838;37.184;2023-07-08T13:09:18;1.70;;;1.60;;
65533;SDS011;53640;55.838;37.184;2023-07-08T13:11:48;2.88;;;1.55;;
65533;SDS011;53640;55.838;37.184;2023-07-08T13:14:18;4.70;;;4.30;;
65533;SDS011;53640;55.838;37.184;2023-07-08T13:16:46;4.53;;;2.10;;
65533;SDS011;53640;55.838;37.184;2023-07-08T13:19:16;2.88;;;1.80;;
65533;SDS011;53640;55.838;37.184;2023-07-08T13:21:47;2.67;;;1.70;;
65533;SDS011;53640;55.838;37.184;2023-07-08T13:24:15;2.20;;;2.00;;
65533;SDS011;53640;55.838;37.184;2023-07-08T13:26:44;1.92;;;1.83;;
65533;SDS011;53640;55.838;37.184;2023-07-08T13:29:14;2.17;;;1.92;;
65533;SDS011;53640;55.838;37.184;2023-07-08T13:31:43;1.77;;;1.60;;
65533;SDS011;53640;55.838;37.184;2023-07-08T13:36:43;2.22;;;1.70;;
65533;SDS011;53640;55.838;37.184;2023-07-08T13:39:15;2.13;;;1.70;;
65533;SDS011;53640;55.838;37.184;2023-07-08T13:41:45;3.03;;;2.70;;
65533;SDS011;53640;55.838;37.184;2023-07-08T13:44:12;4.32;;;2.45;;
65533;SDS011;53640;55.838;37.184;2023-07-08T13:46:50;2.45;;;2.00;;
65533;SDS011;53640;55.838;37.184;2023-07-08T13:52:13;4.47;;;2.10;;
65533;SDS011;53640;55.838;37.184;2023-07-08T13:57:17;5.45;;;3.15;;
65533;SDS011;53640;55.838;37.184;2023-07-08T13:59:47;4.93;;;3.05;;
65533;SDS011;53640;55.838;37.184;2023-07-08T14:02:17;4.75;;;4.15;;
65533;SDS011;53640;55.838;37.184;2023-07-08T14:04:50;3.42;;;3.00;;
65533;SDS011;53640;55.838;37.184;2023-07-08T14:07:20;2.58;;;2.30;;
65533;SDS011;53640;55.838;37.184;2023-07-08T14:09:50;3.50;;;2.05;;
65533;SDS011;53640;55.838;37.184;2023-07-08T14:12:17;3.92;;;2.53;;
65533;SDS011;53640;55.838;37.184;2023-07-08T14:14:43;3.17;;;2.38;;
65533;SDS011;53640;55.838;37.184;2023-07-08T14:17:11;2.63;;;2.40;;
65533;SDS011;53640;55.838;37.184;2023-07-08T14:19:40;4.53;;;2.30;;
65533;SDS011;53640;55.838;37.184;2023-07-08T14:24:40;4.55;;;2.85;;
65533;SDS011;53640;55.838;37.184;2023-07-08T14:27:07;2.53;;;2.33;;
65533;SDS011;53640;55.838;37.184;2023-07-08T14:29:40;3.00;;;2.30;;
65533;SDS011;53640;55.838;37.184;2023-07-08T14:32:18;4.20;;;2.40;;
65533;SDS011;53640;55.838;37.184;2023-07-08T14:34:50;3.45;;;2.22;;
65533;SDS011;53640;55.838;37.184;2023-07-08T14:37:20;2.47;;;2.20;;
65533;SDS011;53640;55.838;37.184;2023-07-08T14:39:48;2.10;;;1.90;;
65533;SDS011;53640;55.838;37.184;2023-07-08T14:42:14;3.80;;;2.30;;
65533;SDS011;53640;55.838;37.184;2023-07-08T14:44:48;3.65;;;2.03;;
65533;SDS011;53640;55.838;37.184;2023-07-08T14:47:18;4.90;;;2.00;;
65533;SDS011;53640;55.838;37.184;2023-07-08T14:49:45;3.42;;;2.40;;
65533;SDS011;53640;55.838;37.184;2023-07-08T14:52:12;7.20;;;2.20;;
65533;SDS011;53640;55.838;37.184;2023-07-08T14:54:40;4.13;;;2.47;;
65533;SDS011;53640;55.838;37.184;2023-07-08T14:57:06;5.03;;;2.45;;
65533;SDS011;53640;55.838;37.184;2023-07-08T14:59:36;3.60;;;1.70;;
65533;SDS011;53640;55.838;37.184;2023-07-08T15:02:11;2.08;;;1.88;;
65533;SDS011;53640;55.838;37.184;2023-07-08T15:04:45;3.25;;;2.40;;
65533;SDS011;53640;55.838;37.184;2023-07-08T15:07:13;3.50;;;2.17;;
65533;SDS011;53640;55.838;37.184;2023-07-08T15:09:39;2.05;;;1.85;;
65533;SDS011;53640;55.838;37.184;2023-07-08T15:12:08;2.75;;;2.20;;
65533;SDS011;53640;55.838;37.184;2023-07-08T15:14:36;3.17;;;1.83;;
65533;SDS011;53640;55.838;37.184;2023-07-08T15:17:09;3.67;;;2.78;;
65533;SDS011;53640;55.838;37.184;2023-07-08T15:19:45;3.47;;;2.67;;
65533;SDS011;53640;55.838;37.184;2023-07-08T15:22:11;3.15;;;2.85;;
65533;SDS011;53640;55.838;37.184;2023-07-08T15:24:38;2.63;;;2.30;;
65533;SDS011;53640;55.838;37.184;2023-07-08T15:27:04;2.50;;;2.10;;
65533;SDS011;53640;55.838;37.184;2023-07-08T15:29:31;4.97;;;2.40;;
65533;SDS011;53640;55.838;37.184;2023-07-08T15:31:59;8.88;;;2.58;;
65533;SDS011;53640;55.838;37.184;2023-07-08T15:34:25;2.13;;;1.92;;
65533;SDS011;53640;55.838;37.184;2023-07-08T15:36:52;2.60;;;2.00;;
65533;SDS011;53640;55.838;37.184;2023-07-08T15:39:18;2.83;;;1.80;;
65533;SDS011;53640;55.838;37.184;2023-07-08T15:41:47;1.98;;;1.83;;
65533;SDS011;53640;55.838;37.184;2023-07-08T15:44:13;1.70;;;1.60;;
65533;SDS011;53640;55.838;37.184;2023-07-08T15:46:41;3.95;;;2.67;;
65533;SDS011;53640;55.838;37.184;2023-07-08T15:49:23;5.43;;;3.17;;
65533;SDS011;53640;55.838;37.184;2023-07-08T15:51:53;3.25;;;2.03;;
65533;SDS011;53640;55.838;37.184;2023-07-08T15:54:19;2.55;;;2.20;;
65533;SDS011;53640;55.838;37.184;2023-07-08T15:56:47;2.80;;;2.03;;
65533;SDS011;53640;55.838;37.184;2023-07-08T15:59:17;5.15;;;2.20;;
65533;SDS011;53640;55.838;37.184;2023-07-08T16:01:48;5.90;;;3.03;;
65533;SDS011;53640;55.838;37.184;2023-07-08T16:04:23;2.53;;;2.25;;
65533;SDS011;53640;55.838;37.184;2023-07-08T16:07:10;8.10;;;2.80;;
65533;SDS011;53640;55.838;37.184;2023-07-08T16:09:36;4.03;;;3.05;;
65533;SDS011;53640;55.838;37.184;2023-07-08T16:12:03;6.13;;;2.83;;
65533;SDS011;53640;55.838;37.184;2023-07-08T16:14:30;4.00;;;2.80;;
65533;SDS011;53640;55.838;37.184;2023-07-08T16:16:57;3.05;;;2.75;;
65533;SDS011;53640;55.838;37.184;2023-07-08T16:19:24;3.38;;;2.70;;
65533;SDS011;53640;55.838;37.184;2023-07-08T16:21:50;4.22;;;3.08;;
65533;SDS011;53640;55.838;37.184;2023-07-08T16:24:18;3.88;;;3.17;;